createdAt,value
2019-05-06T00:00:34.575Z,70.30
2019-05-06T00:03:05.026Z,69.60
2019-05-06T00:05:34.736Z,69.60
2019-05-06T00:08:04.562Z,69.50
2019-05-06T00:10:35.973Z,69.40
2019-05-06T00:13:05.524Z,69.00
2019-05-06T00:15:35.544Z,68.70
2019-05-06T00:18:05.093Z,68.90
2019-05-06T00:20:35.438Z,68.80
2019-05-06T00:23:09.551Z,69.90
2019-05-06T00:25:40.781Z,70.40
2019-05-06T00:28:24.421Z,70.70
2019-05-06T00:31:09.524Z,71.10
2019-05-06T00:33:27.055Z,71.80
2019-05-06T00:35:56.625Z,72.00
2019-05-06T00:38:26.178Z,72.00
2019-05-06T00:41:04.018Z,71.80
2019-05-06T00:43:34.541Z,71.70
2019-05-06T00:46:04.774Z,71.60
2019-05-06T00:48:34.648Z,71.40
2019-05-06T00:51:04.637Z,71.40
2019-05-06T00:53:36.114Z,71.50
2019-05-06T00:56:05.724Z,72.50
2019-05-06T00:58:35.242Z,73.80
2019-05-06T01:01:05.078Z,74.70
2019-05-06T01:03:34.897Z,75.00
2019-05-06T01:06:05.206Z,73.70
2019-05-06T01:08:35.066Z,72.40
2019-05-06T01:11:07.288Z,73.10
2019-05-06T01:13:50.665Z,73.80
2019-05-06T01:16:21.211Z,72.70
2019-05-06T01:18:50.766Z,72.30
2019-05-06T01:21:20.262Z,71.00
2019-05-06T01:23:49.817Z,70.60
2019-05-06T01:26:19.693Z,71.40
2019-05-06T01:28:49.325Z,71.40
2019-05-06T01:31:18.901Z,71.10
2019-05-06T01:33:48.456Z,70.40
2019-05-06T01:36:18.022Z,69.90
2019-05-06T01:38:53.558Z,69.70
2019-05-06T01:41:41.400Z,69.60
2019-05-06T01:44:10.876Z,69.60
2019-05-06T01:46:40.440Z,70.00
2019-05-06T01:49:09.926Z,70.00
2019-05-06T01:51:39.505Z,69.80
2019-05-06T01:54:09.060Z,69.80
2019-05-06T01:56:38.641Z,69.60
2019-05-06T01:59:08.245Z,69.50
2019-05-06T02:01:37.813Z,69.00
2019-05-06T02:04:07.366Z,68.20
2019-05-06T02:06:36.930Z,67.70
2019-05-06T02:09:10.930Z,68.00
2019-05-06T02:11:40.492Z,68.00
2019-05-06T02:14:10.050Z,67.60
2019-05-06T02:16:39.616Z,67.30
2019-05-06T02:19:09.177Z,67.30
2019-05-06T02:21:43.816Z,67.40
2019-05-06T02:24:17.968Z,67.30
2019-05-06T02:26:47.539Z,67.80
2019-05-06T02:29:18.729Z,68.70
2019-05-06T02:32:17.449Z,68.30
2019-05-06T02:34:36.512Z,67.80
2019-05-06T02:37:10.602Z,67.80
2019-05-06T02:39:43.590Z,67.40
2019-05-06T02:42:13.092Z,67.70
2019-05-06T02:44:44.179Z,67.90
2019-05-06T02:47:23.051Z,68.40
2019-05-06T02:49:54.595Z,68.10
2019-05-06T02:52:24.165Z,67.50
2019-05-06T02:54:53.893Z,67.30
2019-05-06T02:57:24.056Z,67.30
2019-05-06T02:59:55.417Z,66.90
2019-05-06T03:02:39.079Z,66.30
2019-05-06T03:04:56.257Z,66.70
2019-05-06T03:07:25.911Z,67.00
2019-05-06T03:09:55.463Z,66.80
2019-05-06T03:12:25.034Z,67.30
2019-05-06T03:14:54.589Z,66.90
2019-05-06T03:17:24.154Z,66.80
2019-05-06T03:19:55.351Z,66.30
2019-05-06T03:22:35.726Z,66.50
2019-05-06T03:25:07.860Z,66.10
2019-05-06T03:27:37.504Z,66.30
2019-05-06T03:30:10.077Z,67.00
2019-05-06T03:33:14.323Z,67.10
2019-05-06T03:35:31.108Z,67.20
2019-05-06T03:37:44.075Z,66.90
2019-05-06T03:40:13.941Z,66.30
2019-05-06T03:42:43.650Z,66.90
2019-05-06T03:45:17.642Z,66.40
2019-05-06T03:47:54.279Z,65.70
2019-05-06T03:50:23.955Z,65.60
2019-05-06T03:52:56.481Z,66.30
2019-05-06T03:55:26.978Z,65.50
2019-05-06T03:57:57.182Z,65.80
2019-05-06T04:00:26.750Z,65.40
2019-05-06T04:02:56.383Z,65.60
2019-05-06T04:05:25.953Z,65.60
2019-05-06T04:07:55.955Z,65.10
2019-05-06T04:10:25.517Z,65.20
2019-05-06T04:12:55.313Z,65.00
2019-05-06T04:15:26.665Z,65.20
2019-05-06T04:17:58.383Z,65.20
2019-05-06T04:20:30.223Z,65.50
2019-05-06T04:23:06.027Z,65.80
2019-05-06T04:25:46.798Z,66.20
2019-05-06T04:28:23.569Z,66.80
2019-05-06T04:30:54.556Z,66.70
2019-05-06T04:33:23.735Z,67.10
2019-05-06T04:35:54.267Z,67.90
2019-05-06T04:38:29.344Z,67.10
2019-05-06T04:40:59.399Z,67.10
2019-05-06T04:43:28.968Z,66.70
2019-05-06T04:45:59.178Z,66.90
2019-05-06T04:48:28.805Z,66.50
2019-05-06T04:50:58.367Z,66.70
2019-05-06T04:53:27.939Z,67.00
2019-05-06T04:55:57.552Z,67.10
2019-05-06T04:58:27.569Z,67.40
2019-05-06T05:00:57.124Z,67.70
2019-05-06T05:03:26.836Z,67.90
2019-05-06T05:05:56.390Z,68.00
2019-05-06T05:08:38.310Z,68.30
2019-05-06T05:11:12.803Z,67.90
2019-05-06T05:13:49.465Z,68.50
2019-05-06T05:16:37.088Z,68.60
2019-05-06T05:19:08.292Z,68.30
2019-05-06T05:21:37.939Z,68.20
2019-05-06T05:24:07.643Z,67.90
2019-05-06T05:26:37.895Z,68.40
2019-05-06T05:29:07.461Z,69.10
2019-05-06T05:31:37.284Z,69.50
2019-05-06T05:34:06.905Z,69.90
2019-05-06T05:36:36.558Z,72.30
2019-05-06T05:39:07.717Z,71.90
2019-05-06T05:41:37.755Z,72.10
2019-05-06T05:44:12.041Z,71.00
2019-05-06T05:46:43.847Z,71.50
2019-05-06T05:49:24.575Z,70.40
2019-05-06T05:51:54.213Z,70.80
2019-05-06T05:54:24.646Z,70.70
2019-05-06T05:56:54.313Z,71.10
2019-05-06T05:59:24.091Z,71.40
2019-05-06T06:01:53.806Z,70.50
2019-05-06T06:04:23.439Z,69.60
2019-05-06T06:06:53.023Z,69.50
2019-05-06T06:09:24.526Z,69.20
2019-05-06T06:11:56.180Z,68.90
2019-05-06T06:14:30.218Z,68.50
2019-05-06T06:17:12.848Z,68.20
2019-05-06T06:19:58.849Z,68.40
2019-05-06T06:22:30.166Z,68.70
2019-05-06T06:24:59.975Z,68.30
2019-05-06T06:27:33.180Z,68.20
2019-05-06T06:30:02.911Z,68.40
2019-05-06T06:32:33.040Z,66.90
2019-05-06T06:35:11.050Z,67.10
2019-05-06T06:37:45.939Z,66.90
2019-05-06T06:40:17.689Z,67.10
2019-05-06T06:42:49.156Z,67.50
2019-05-06T06:45:18.804Z,66.90
2019-05-06T06:47:48.840Z,67.50
2019-05-06T06:50:18.482Z,67.50
2019-05-06T06:52:48.184Z,67.30
2019-05-06T06:55:18.659Z,67.50
2019-05-06T06:57:56.873Z,68.30
2019-05-06T07:00:28.161Z,68.40
2019-05-06T07:02:59.928Z,69.30
2019-05-06T07:05:34.520Z,69.10
2019-05-06T07:08:04.282Z,69.20
2019-05-06T07:10:46.000Z,68.40
2019-05-06T07:13:19.550Z,67.40
2019-05-06T07:15:49.088Z,67.30
2019-05-06T07:18:18.691Z,67.60
2019-05-06T07:21:07.718Z,68.30
2019-05-06T07:23:37.629Z,67.90
2019-05-06T07:26:08.358Z,67.30
2019-05-06T07:28:37.973Z,66.70
2019-05-06T07:31:20.730Z,65.80
2019-05-06T07:33:42.698Z,66.80
2019-05-06T07:36:13.004Z,65.30
2019-05-06T07:38:52.680Z,64.50
2019-05-06T07:41:32.505Z,64.60
2019-05-06T07:44:03.182Z,63.20
2019-05-06T07:46:34.573Z,63.80
2019-05-06T07:49:04.180Z,64.40
2019-05-06T07:51:34.002Z,63.00
2019-05-06T07:54:03.641Z,61.00
2019-05-06T07:56:33.185Z,60.20
2019-05-06T07:59:08.800Z,61.30
2019-05-06T08:01:40.308Z,60.70
2019-05-06T08:04:12.019Z,60.60
2019-05-06T08:06:42.662Z,59.80
2019-05-06T08:09:13.144Z,59.40
2019-05-06T08:11:42.981Z,58.70
2019-05-06T08:14:13.225Z,59.00
2019-05-06T08:16:44.646Z,59.00
2019-05-06T08:19:14.289Z,59.70
2019-05-06T08:21:45.826Z,58.30
2019-05-06T08:24:15.472Z,57.60
2019-05-06T08:26:45.134Z,57.50
2019-05-06T08:29:16.015Z,56.90
2019-05-06T08:31:45.822Z,56.40
2019-05-06T08:34:15.521Z,55.90
2019-05-06T08:36:46.736Z,56.70
2019-05-06T08:39:16.315Z,56.90
2019-05-06T08:41:45.957Z,56.60
2019-05-06T08:44:15.475Z,56.00
2019-05-06T08:46:45.301Z,56.40
2019-05-06T08:49:14.940Z,56.00
2019-05-06T08:51:46.183Z,55.50
2019-05-06T08:54:33.634Z,55.50
2019-05-06T08:57:03.556Z,56.30
2019-05-06T08:59:33.186Z,56.70
2019-05-06T09:02:03.844Z,56.20
2019-05-06T09:04:33.610Z,56.20
2019-05-06T09:07:03.521Z,56.60
2019-05-06T09:09:33.094Z,57.60
2019-05-06T09:12:02.881Z,57.80
2019-05-06T09:14:32.833Z,57.90
2019-05-06T09:17:02.983Z,58.10
2019-05-06T09:19:33.306Z,58.60
2019-05-06T09:22:03.384Z,59.40
2019-05-06T09:24:32.941Z,59.00
2019-05-06T09:27:06.972Z,58.20
2019-05-06T09:29:43.008Z,57.80
2019-05-06T09:32:17.137Z,57.40
2019-05-06T09:34:52.793Z,57.50
2019-05-06T09:37:23.931Z,57.60
2019-05-06T09:39:53.651Z,57.00
2019-05-06T09:42:23.417Z,57.50
2019-05-06T09:44:54.150Z,56.80
2019-05-06T09:47:32.980Z,56.90
2019-05-06T09:50:02.973Z,56.80
2019-05-06T09:52:33.286Z,57.20
2019-05-06T09:55:05.081Z,57.10
2019-05-06T09:57:36.305Z,57.50
2019-05-06T10:00:07.806Z,58.20
2019-05-06T10:02:37.480Z,58.40
2019-05-06T10:05:07.185Z,58.30
2019-05-06T10:07:36.891Z,58.40
2019-05-06T10:10:06.881Z,57.20
2019-05-06T10:12:36.500Z,57.70
2019-05-06T10:15:06.155Z,57.80
2019-05-06T10:17:35.755Z,57.80
2019-05-06T10:20:08.753Z,57.10
2019-05-06T10:22:38.337Z,57.40
2019-05-06T10:25:08.452Z,57.90
2019-05-06T10:27:39.681Z,58.20
2019-05-06T10:30:14.497Z,56.40
2019-05-06T10:32:45.724Z,56.20
2019-05-06T10:35:15.930Z,55.20
2019-05-06T10:37:56.855Z,55.10
2019-05-06T10:40:32.927Z,55.50
2019-05-06T10:43:11.512Z,55.70
2019-05-06T10:45:42.645Z,55.10
2019-05-06T10:48:12.864Z,54.60
2019-05-06T10:50:44.153Z,54.50
2019-05-06T10:53:18.139Z,54.80
2019-05-06T10:55:53.549Z,54.40
2019-05-06T10:58:23.690Z,54.10
2019-05-06T11:00:57.799Z,53.60
2019-05-06T11:03:27.894Z,54.20
2019-05-06T11:05:57.730Z,53.90
2019-05-06T11:08:27.317Z,54.70
2019-05-06T11:11:11.173Z,55.70
2019-05-06T11:13:28.272Z,56.80
2019-05-06T11:15:57.855Z,57.30
2019-05-06T11:18:27.441Z,57.10
2019-05-06T11:20:57.008Z,56.60
2019-05-06T11:23:26.603Z,56.80
2019-05-06T11:25:56.186Z,56.40
2019-05-06T11:28:43.726Z,56.80
2019-05-06T11:31:23.733Z,57.20
2019-05-06T11:34:13.482Z,56.80
2019-05-06T11:36:47.192Z,55.20
2019-05-06T11:39:26.463Z,54.30
2019-05-06T11:42:22.524Z,54.70
2019-05-06T11:44:27.369Z,53.30
2019-05-06T11:46:56.964Z,52.00
2019-05-06T11:49:39.082Z,51.60
2019-05-06T11:52:08.922Z,52.10
2019-05-06T11:54:38.505Z,52.10
2019-05-06T11:57:09.706Z,52.50
2019-05-06T11:59:39.345Z,52.90
2019-05-06T12:02:12.607Z,53.20
2019-05-06T12:04:41.985Z,53.20
2019-05-06T12:07:15.455Z,53.20
2019-05-06T12:09:42.902Z,53.90
2019-05-06T12:12:12.873Z,53.80
2019-05-06T12:14:43.049Z,54.50
2019-05-06T12:17:12.969Z,54.40
2019-05-06T12:19:43.373Z,54.60
2019-05-06T12:22:13.265Z,53.10
2019-05-06T12:24:43.191Z,52.70
2019-05-06T12:27:14.654Z,51.80
2019-05-06T12:29:44.243Z,52.60
2019-05-06T12:32:24.224Z,53.10
2019-05-06T12:34:53.844Z,53.20
2019-05-06T12:37:25.026Z,53.90
2019-05-06T12:39:55.508Z,55.40
2019-05-06T12:42:29.464Z,58.10
2019-05-06T12:45:03.648Z,61.70
2019-05-06T12:47:42.502Z,63.10
2019-05-06T12:50:12.177Z,64.20
2019-05-06T12:52:44.169Z,65.70
2019-05-06T12:55:21.177Z,64.40
2019-05-06T12:57:44.733Z,64.00
2019-05-06T13:00:15.451Z,64.80
2019-05-06T13:02:45.394Z,64.70
2019-05-06T13:05:15.919Z,65.70
2019-05-06T13:07:47.505Z,65.90
2019-05-06T13:10:19.273Z,67.00
2019-05-06T13:12:50.435Z,62.20
2019-05-06T13:15:20.238Z,63.40
2019-05-06T13:17:49.997Z,62.60
2019-05-06T13:20:22.577Z,63.50
2019-05-06T13:22:58.495Z,65.70
2019-05-06T13:25:28.220Z,67.10
2019-05-06T13:27:57.704Z,66.50
2019-05-06T13:30:27.285Z,69.10
2019-05-06T13:32:58.684Z,66.60
2019-05-06T13:35:28.488Z,68.70
2019-05-06T13:37:58.066Z,68.60
2019-05-06T13:40:27.625Z,68.60
2019-05-06T13:43:13.127Z,70.80
2019-05-06T13:45:43.822Z,72.80
2019-05-06T13:48:26.947Z,71.90
2019-05-06T13:50:58.232Z,72.20
2019-05-06T13:53:39.005Z,72.00
2019-05-06T13:56:01.910Z,72.90
2019-05-06T13:58:32.352Z,71.90
2019-05-06T14:01:03.378Z,70.10
2019-05-06T14:03:33.083Z,70.30
2019-05-06T14:06:22.020Z,69.60
2019-05-06T14:08:52.966Z,68.50
2019-05-06T14:11:23.192Z,68.00
2019-05-06T14:13:53.023Z,66.50
2019-05-06T14:16:24.625Z,67.30
2019-05-06T14:18:54.112Z,68.00
2019-05-06T14:21:23.605Z,68.50
2019-05-06T14:23:53.653Z,68.00
2019-05-06T14:26:44.826Z,66.60
2019-05-06T14:29:15.976Z,67.50
2019-05-06T14:31:47.223Z,67.40
2019-05-06T14:34:16.857Z,67.40
2019-05-06T14:36:46.434Z,68.30
2019-05-06T14:39:17.934Z,69.00
2019-05-06T14:41:49.622Z,71.10
2019-05-06T14:44:19.145Z,71.40
2019-05-06T14:46:50.439Z,69.60
2019-05-06T14:49:22.387Z,69.70
2019-05-06T14:51:53.501Z,68.20
2019-05-06T14:54:22.567Z,68.40
2019-05-06T14:57:02.507Z,68.10
2019-05-06T14:59:32.982Z,68.50
2019-05-06T15:02:02.781Z,68.30
2019-05-06T15:04:32.757Z,69.30
2019-05-06T15:07:02.327Z,68.70
2019-05-06T15:09:33.069Z,71.00
2019-05-06T15:12:02.734Z,68.80
2019-05-06T15:14:33.094Z,67.10
2019-05-06T15:17:02.828Z,66.10
2019-05-06T15:19:32.410Z,62.50
2019-05-06T15:22:02.325Z,64.40
2019-05-06T15:24:31.963Z,62.20
2019-05-06T15:27:02.730Z,61.70
2019-05-06T15:29:32.412Z,62.90
2019-05-06T15:32:09.593Z,63.30
2019-05-06T15:34:46.666Z,64.10
2019-05-06T15:37:28.327Z,63.90
2019-05-06T15:39:57.927Z,64.20
2019-05-06T15:42:29.169Z,64.00
2019-05-06T15:44:59.016Z,64.80
2019-05-06T15:47:28.578Z,65.30
2019-05-06T15:49:58.146Z,64.80
2019-05-06T15:52:27.773Z,65.20
2019-05-06T15:54:57.502Z,64.70
2019-05-06T15:57:27.097Z,63.60
2019-05-06T15:59:56.762Z,64.20
2019-05-06T16:02:26.377Z,63.60
2019-05-06T16:04:55.982Z,63.70
2019-05-06T16:07:26.288Z,64.50
2019-05-06T16:09:55.881Z,64.40
2019-05-06T16:12:25.373Z,64.90
2019-05-06T16:14:54.967Z,65.60
2019-05-06T16:17:24.538Z,65.30
2019-05-06T16:19:54.100Z,65.70
2019-05-06T16:22:23.671Z,65.20
2019-05-06T16:25:04.180Z,64.40
2019-05-06T16:27:33.772Z,65.70
2019-05-06T16:30:04.834Z,64.40
2019-05-06T16:32:34.459Z,65.20
2019-05-06T16:35:05.225Z,64.50
2019-05-06T16:37:34.861Z,64.50
2019-05-06T16:40:05.732Z,63.80
2019-05-06T16:42:35.662Z,63.50
2019-05-06T16:45:08.597Z,62.30
2019-05-06T16:47:39.070Z,62.30
2019-05-06T16:50:12.999Z,61.50
2019-05-06T16:52:44.905Z,61.40
2019-05-06T16:55:15.773Z,61.20
2019-05-06T16:57:55.886Z,59.80
2019-05-06T17:00:27.248Z,59.50
2019-05-06T17:03:16.761Z,59.50
2019-05-06T17:06:03.123Z,59.60
2019-05-06T17:08:33.321Z,57.90
2019-05-06T17:11:04.784Z,57.00
2019-05-06T17:13:37.735Z,57.10
2019-05-06T17:16:06.218Z,57.70
2019-05-06T17:18:35.755Z,56.20
2019-05-06T17:21:05.675Z,55.20
2019-05-06T17:23:35.540Z,55.20
2019-05-06T17:26:05.341Z,55.50
2019-05-06T17:28:38.004Z,56.00
2019-05-06T17:31:13.252Z,57.20
2019-05-06T17:33:44.492Z,56.80
2019-05-06T17:36:15.777Z,57.30
2019-05-06T17:38:46.985Z,58.20
2019-05-06T17:41:16.870Z,57.40
2019-05-06T17:43:46.441Z,58.30
2019-05-06T17:46:23.475Z,59.00
2019-05-06T17:49:02.251Z,59.20
2019-05-06T17:51:51.970Z,60.10
2019-05-06T17:54:24.081Z,57.00
2019-05-06T17:56:53.037Z,57.00
2019-05-06T17:59:22.590Z,56.10
2019-05-06T18:01:53.954Z,55.20
2019-05-06T18:04:23.601Z,55.50
2019-05-06T18:06:53.188Z,55.50
2019-05-06T18:09:22.765Z,52.20
2019-05-06T18:11:58.782Z,50.50
2019-05-06T18:14:23.582Z,50.80
2019-05-06T18:16:53.774Z,50.70
2019-05-06T18:19:23.852Z,51.10
2019-05-06T18:21:53.578Z,51.20
2019-05-06T18:24:23.213Z,49.70
2019-05-06T18:26:53.018Z,48.90
2019-05-06T18:29:22.538Z,49.20
2019-05-06T18:31:52.588Z,50.90
2019-05-06T18:34:23.220Z,50.20
2019-05-06T18:36:52.864Z,50.60
2019-05-06T18:39:22.589Z,49.70
2019-05-06T18:41:53.085Z,49.60
2019-05-06T18:44:22.938Z,50.40
2019-05-06T18:46:53.181Z,49.70
2019-05-06T18:49:23.132Z,51.00
2019-05-06T18:51:54.261Z,50.80
2019-05-06T18:54:25.750Z,51.90
2019-05-06T18:56:55.536Z,50.80
2019-05-06T18:59:25.157Z,50.50
2019-05-06T19:01:54.685Z,50.00
2019-05-06T19:04:32.974Z,51.10
2019-05-06T19:07:10.433Z,50.70
2019-05-06T19:09:34.540Z,51.20
2019-05-06T19:12:04.407Z,51.70
2019-05-06T19:14:34.033Z,52.20
2019-05-06T19:17:03.765Z,51.90
2019-05-06T19:19:34.956Z,51.90
2019-05-06T19:22:04.669Z,52.60
2019-05-06T19:24:34.402Z,52.20
2019-05-06T19:27:04.147Z,51.10
2019-05-06T19:29:33.766Z,51.20
2019-05-06T19:32:03.538Z,50.20
2019-05-06T19:34:35.231Z,51.10
2019-05-06T19:37:04.385Z,51.40
2019-05-06T19:39:34.117Z,51.90
2019-05-06T19:42:05.140Z,53.30
2019-05-06T19:44:34.882Z,52.20
2019-05-06T19:47:04.462Z,51.90
2019-05-06T19:49:34.122Z,52.50
2019-05-06T19:52:03.686Z,52.90
2019-05-06T19:54:33.348Z,52.90
2019-05-06T19:57:02.905Z,52.30
2019-05-06T19:59:33.052Z,51.60
2019-05-06T20:02:05.014Z,52.60
2019-05-06T20:04:35.479Z,53.50
2019-05-06T20:07:06.852Z,53.40
2019-05-06T20:09:38.074Z,52.90
2019-05-06T20:12:09.334Z,52.80
2019-05-06T20:14:38.922Z,53.10
2019-05-06T20:17:08.626Z,52.50
2019-05-06T20:19:38.280Z,52.60
2019-05-06T20:22:07.861Z,52.30
2019-05-06T20:24:37.467Z,52.60
2019-05-06T20:27:07.046Z,53.40
2019-05-06T20:29:38.490Z,53.70
2019-05-06T20:32:07.762Z,52.80
2019-05-06T20:34:37.657Z,52.40
2019-05-06T20:37:07.228Z,52.50
2019-05-06T20:39:36.892Z,52.90
2019-05-06T20:42:06.455Z,53.00
2019-05-06T20:44:36.103Z,53.20
2019-05-06T20:47:05.763Z,52.90
2019-05-06T20:49:35.388Z,51.80
2019-05-06T20:52:05.087Z,51.70
2019-05-06T20:54:34.653Z,51.90
2019-05-06T20:57:04.297Z,52.90
2019-05-06T20:59:33.875Z,53.40
2019-05-06T21:02:03.699Z,54.00
2019-05-06T21:04:33.284Z,53.40
2019-05-06T21:07:02.899Z,53.00
2019-05-06T21:09:32.583Z,52.90
2019-05-06T21:12:02.608Z,52.50
2019-05-06T21:14:32.419Z,52.80
2019-05-06T21:17:02.832Z,53.80
2019-05-06T21:19:33.231Z,53.70
2019-05-06T21:22:02.990Z,54.40
2019-05-06T21:24:35.744Z,54.70
2019-05-06T21:27:04.221Z,54.60
2019-05-06T21:29:33.883Z,54.70
2019-05-06T21:32:03.513Z,54.60
2019-05-06T21:34:33.086Z,53.70
2019-05-06T21:37:02.903Z,53.70
2019-05-06T21:39:33.270Z,52.90
2019-05-06T21:42:02.865Z,53.10
2019-05-06T21:44:32.601Z,53.50
2019-05-06T21:47:03.043Z,53.60
2019-05-06T21:49:32.850Z,54.10
2019-05-06T21:52:02.577Z,54.30
2019-05-06T21:54:32.874Z,54.70
2019-05-06T21:57:03.107Z,54.40
2019-05-06T21:59:33.059Z,54.30
2019-05-06T22:02:04.437Z,54.00
2019-05-06T22:04:34.016Z,54.20
2019-05-06T22:07:03.661Z,53.90
2019-05-06T22:09:33.249Z,54.00
2019-05-06T22:12:02.823Z,54.50
2019-05-06T22:14:32.647Z,55.00
2019-05-06T22:17:04.153Z,55.10
2019-05-06T22:19:34.077Z,55.30
2019-05-06T22:22:12.110Z,54.70
2019-05-06T22:24:44.211Z,54.30
2019-05-06T22:27:14.636Z,54.30
2019-05-06T22:29:44.193Z,54.80
2019-05-06T22:32:14.891Z,55.00
2019-05-06T22:34:45.171Z,55.70
2019-05-06T22:37:14.801Z,55.40
2019-05-06T22:39:44.372Z,55.00
2019-05-06T22:42:13.949Z,55.10
2019-05-06T22:44:43.437Z,55.80
2019-05-06T22:47:13.022Z,55.70
2019-05-06T22:49:42.577Z,55.80
2019-05-06T22:52:12.692Z,56.00
2019-05-06T22:54:43.333Z,56.40
2019-05-06T22:57:13.081Z,56.80
2019-05-06T22:59:42.874Z,57.00
2019-05-06T23:02:18.289Z,57.20
2019-05-06T23:04:53.086Z,57.90
2019-05-06T23:07:23.586Z,56.50
2019-05-06T23:09:53.141Z,56.70
2019-05-06T23:12:23.173Z,56.90
2019-05-06T23:14:53.049Z,56.90
2019-05-06T23:17:22.864Z,57.50
2019-05-06T23:19:52.834Z,57.00
2019-05-06T23:22:22.803Z,57.00
2019-05-06T23:24:54.165Z,56.80
2019-05-06T23:27:23.828Z,57.40
2019-05-06T23:29:56.269Z,58.80
2019-05-06T23:32:25.826Z,59.40
2019-05-06T23:34:55.386Z,58.60
2019-05-06T23:37:23.838Z,58.80
2019-05-06T23:40:33.150Z,59.50
2019-05-06T23:43:38.927Z,59.50
2019-05-06T23:46:44.963Z,60.60
2019-05-06T23:49:52.666Z,60.90
2019-05-06T23:52:58.547Z,61.20
2019-05-06T23:56:04.298Z,61.80
2019-05-06T23:58:33.867Z,62.40
